sensor_id;sensor_type;location;lat;lon;timestamp;pressure;altitude;pressure_sealevel;temperature;humidity
28344;BME280;15597;50.914;6.638;2023-07-29T00:01:59;99980.34;;;26.21;50.83
28344;BME280;15597;50.914;6.638;2023-07-29T00:04:25;99983.72;;;26.23;50.66
28344;BME280;15597;50.914;6.638;2023-07-29T00:06:50;99982.34;;;26.19;50.94
28344;BME280;15597;50.914;6.638;2023-07-29T00:09:16;99976.97;;;26.19;51.19
28344;BME280;15597;50.914;6.638;2023-07-29T00:11:41;99978.97;;;26.17;51.10
28344;BME280;15597;50.914;6.638;2023-07-29T00:14:07;99966.56;;;26.16;51.28
28344;BME280;15597;50.914;6.638;2023-07-29T00:16:32;99978.66;;;26.20;51.33
28344;BME280;15597;50.914;6.638;2023-07-29T00:18:58;99964.56;;;26.18;50.58
28344;BME280;15597;50.914;6.638;2023-07-29T00:21:24;99976.97;;;26.19;50.58
28344;BME280;15597;50.914;6.638;2023-07-29T00:23:49;99975.28;;;26.18;50.27
28344;BME280;15597;50.914;6.638;2023-07-29T00:26:15;99971.91;;;26.16;50.87
28344;BME280;15597;50.914;6.638;2023-07-29T00:28:40;99971.91;;;26.16;50.47
28344;BME280;15597;50.914;6.638;2023-07-29T00:31:06;99973.59;;;26.17;50.02
28344;BME280;15597;50.914;6.638;2023-07-29T00:33:33;99969.66;;;26.11;50.18
28344;BME280;15597;50.914;6.638;2023-07-29T00:35:59;99968.13;;;26.08;50.38
28344;BME280;15597;50.914;6.638;2023-07-29T00:38:27;99971.09;;;26.05;49.92
28344;BME280;15597;50.914;6.638;2023-07-29T00:40:53;99973.38;;;26.00;50.33
28344;BME280;15597;50.914;6.638;2023-07-29T00:43:19;99963.09;;;25.95;50.65
28344;BME280;15597;50.914;6.638;2023-07-29T00:45:45;99965.53;;;25.89;50.05
28344;BME280;15597;50.914;6.638;2023-07-29T00:48:10;99960.47;;;25.86;50.00
28344;BME280;15597;50.914;6.638;2023-07-29T00:50:36;99959.09;;;25.81;50.23
28344;BME280;15597;50.914;6.638;2023-07-29T00:53:02;99961.06;;;25.79;50.72
28344;BME280;15597;50.914;6.638;2023-07-29T00:55:28;99957.69;;;25.77;50.68
28344;BME280;15597;50.914;6.638;2023-07-29T00:57:54;99954.31;;;25.75;50.80
28344;BME280;15597;50.914;6.638;2023-07-29T01:00:21;99947.56;;;25.71;50.85
28344;BME280;15597;50.914;6.638;2023-07-29T01:02:46;99958.28;;;25.71;51.21
28344;BME280;15597;50.914;6.638;2023-07-29T01:05:13;99959.13;;;25.72;50.49
28344;BME280;15597;50.914;6.638;2023-07-29T01:08:09;99941.69;;;25.58;51.04
28344;BME280;15597;50.914;6.638;2023-07-29T01:10:39;99951.66;;;25.65;51.04
28344;BME280;15597;50.914;6.638;2023-07-29T01:13:30;99943.09;;;25.62;50.83
28344;BME280;15597;50.914;6.638;2023-07-29T01:16:03;99946.31;;;25.65;50.87
28344;BME280;15597;50.914;6.638;2023-07-29T01:18:35;99950.53;;;25.68;50.76
28344;BME280;15597;50.914;6.638;2023-07-29T01:21:04;99942.50;;;25.68;51.25
28344;BME280;15597;50.914;6.638;2023-07-29T01:23:34;99940.81;;;25.67;51.05
28344;BME280;15597;50.914;6.638;2023-07-29T01:26:00;99941.09;;;25.64;50.60
28344;BME280;15597;50.914;6.638;2023-07-29T01:28:26;99941.81;;;25.66;50.88
28344;BME280;15597;50.914;6.638;2023-07-29T01:31:01;99949.44;;;25.61;51.97
28344;BME280;15597;50.914;6.638;2023-07-29T01:33:34;99949.56;;;25.59;51.52
28344;BME280;15597;50.914;6.638;2023-07-29T01:36:08;99946.66;;;25.52;51.27
28344;BME280;15597;50.914;6.638;2023-07-29T01:38:36;99943.69;;;25.56;51.46
28344;BME280;15597;50.914;6.638;2023-07-29T01:41:04;99953.69;;;25.34;51.90
28344;BME280;15597;50.914;6.638;2023-07-29T01:43:31;99937.75;;;25.42;51.62
28344;BME280;15597;50.914;6.638;2023-07-29T01:45:58;99934.94;;;25.44;51.04
28344;BME280;15597;50.914;6.638;2023-07-29T01:48:24;99936.06;;;25.41;51.71
28344;BME280;15597;50.914;6.638;2023-07-29T01:50:53;99931.69;;;25.40;51.76
28344;BME280;15597;50.914;6.638;2023-07-29T01:53:18;99934.66;;;25.37;51.01
28344;BME280;15597;50.914;6.638;2023-07-29T01:55:44;99937.50;;;25.35;51.82
28344;BME280;15597;50.914;6.638;2023-07-29T01:58:10;99943.97;;;25.33;51.15
28344;BME280;15597;50.914;6.638;2023-07-29T02:00:37;99953.84;;;25.32;51.14
28344;BME280;15597;50.914;6.638;2023-07-29T02:03:03;99955.41;;;25.25;51.28
28344;BME280;15597;50.914;6.638;2023-07-29T02:05:30;99953.00;;;25.32;50.83
28344;BME280;15597;50.914;6.638;2023-07-29T02:07:59;99949.63;;;25.30;51.25
28344;BME280;15597;50.914;6.638;2023-07-29T02:10:24;99959.50;;;25.29;51.04
28344;BME280;15597;50.914;6.638;2023-07-29T02:12:50;99945.41;;;25.27;51.47
28344;BME280;15597;50.914;6.638;2023-07-29T02:15:15;99943.56;;;25.28;50.89
28344;BME280;15597;50.914;6.638;2023-07-29T02:17:42;99945.13;;;25.30;51.99
28344;BME280;15597;50.914;6.638;2023-07-29T02:20:08;99942.28;;;25.32;51.71
28344;BME280;15597;50.914;6.638;2023-07-29T02:22:34;99936.94;;;25.32;51.35
28344;BME280;15597;50.914;6.638;2023-07-29T02:24:59;99926.22;;;25.32;52.30
28344;BME280;15597;50.914;6.638;2023-07-29T02:27:26;99930.16;;;25.37;51.17
28344;BME280;15597;50.914;6.638;2023-07-29T02:29:53;99931.84;;;25.38;50.97
28344;BME280;15597;50.914;6.638;2023-07-29T02:32:19;99936.34;;;25.38;51.51
28344;BME280;15597;50.914;6.638;2023-07-29T02:34:44;99930.00;;;25.39;51.10
28344;BME280;15597;50.914;6.638;2023-07-29T02:37:10;99938.03;;;25.39;50.67
28344;BME280;15597;50.914;6.638;2023-07-29T02:39:36;99934.66;;;25.37;50.95
28344;BME280;15597;50.914;6.638;2023-07-29T02:42:02;99944.84;;;25.33;50.54
28344;BME280;15597;50.914;6.638;2023-07-29T02:44:28;99942.16;;;25.33;50.92
28344;BME280;15597;50.914;6.638;2023-07-29T02:46:53;99945.81;;;25.32;50.91
28344;BME280;15597;50.914;6.638;2023-07-29T02:49:21;99943.97;;;25.33;50.88
28344;BME280;15597;50.914;6.638;2023-07-29T02:51:47;99944.25;;;25.30;50.99
28344;BME280;15597;50.914;6.638;2023-07-29T02:54:12;99954.69;;;25.33;51.84
28344;BME280;15597;50.914;6.638;2023-07-29T02:56:38;99946.25;;;25.28;52.48
28344;BME280;15597;50.914;6.638;2023-07-29T02:59:04;99946.41;;;25.26;51.92
28344;BME280;15597;50.914;6.638;2023-07-29T03:01:31;99951.88;;;25.24;52.17
28344;BME280;15597;50.914;6.638;2023-07-29T03:03:56;99937.09;;;25.20;51.59
28344;BME280;15597;50.914;6.638;2023-07-29T03:06:24;99931.03;;;25.18;51.01
28344;BME280;15597;50.914;6.638;2023-07-29T03:08:49;99925.97;;;25.15;52.56
28344;BME280;15597;50.914;6.638;2023-07-29T03:11:16;99911.91;;;25.13;51.77
28344;BME280;15597;50.914;6.638;2023-07-29T03:13:42;99919.09;;;25.13;51.59
28344;BME280;15597;50.914;6.638;2023-07-29T03:16:10;99942.19;;;25.14;52.07
28344;BME280;15597;50.914;6.638;2023-07-29T03:18:38;99945.72;;;25.14;52.15
28344;BME280;15597;50.914;6.638;2023-07-29T03:21:04;99930.94;;;25.10;51.06
28344;BME280;15597;50.914;6.638;2023-07-29T03:23:31;99923.47;;;25.04;51.08
28344;BME280;15597;50.914;6.638;2023-07-29T03:25:58;99912.94;;;25.02;51.42
28344;BME280;15597;50.914;6.638;2023-07-29T03:28:28;99903.91;;;24.93;51.56
28344;BME280;15597;50.914;6.638;2023-07-29T03:30:55;99925.91;;;24.97;52.21
28344;BME280;15597;50.914;6.638;2023-07-29T03:33:20;99933.06;;;24.97;51.50
28344;BME280;15597;50.914;6.638;2023-07-29T03:35:46;99926.19;;;24.94;51.46
28344;BME280;15597;50.914;6.638;2023-07-29T03:38:13;99933.06;;;24.97;51.67
28344;BME280;15597;50.914;6.638;2023-07-29T03:40:39;99920.66;;;24.96;51.45
28344;BME280;15597;50.914;6.638;2023-07-29T03:43:05;99922.66;;;24.93;51.12
28344;BME280;15597;50.914;6.638;2023-07-29T03:45:31;99925.19;;;24.95;52.02
28344;BME280;15597;50.914;6.638;2023-07-29T03:47:57;99918.97;;;24.94;51.70
28344;BME280;15597;50.914;6.638;2023-07-29T03:50:23;99917.72;;;24.99;51.87
28344;BME280;15597;50.914;6.638;2023-07-29T03:52:49;99926.72;;;25.07;51.72
28344;BME280;15597;50.914;6.638;2023-07-29T03:55:15;99923.88;;;25.09;51.14
28344;BME280;15597;50.914;6.638;2023-07-29T03:57:41;99942.34;;;25.12;51.08
28344;BME280;15597;50.914;6.638;2023-07-29T04:00:07;99940.81;;;25.09;50.80
28344;BME280;15597;50.914;6.638;2023-07-29T04:02:41;99946.28;;;25.08;51.07
28344;BME280;15597;50.914;6.638;2023-07-29T04:05:08;99949.25;;;25.05;51.25
28344;BME280;15597;50.914;6.638;2023-07-29T04:07:34;99951.09;;;25.04;50.73
28344;BME280;15597;50.914;6.638;2023-07-29T04:10:01;99939.81;;;25.01;51.35
28344;BME280;15597;50.914;6.638;2023-07-29T04:12:27;99940.69;;;25.01;51.03
28344;BME280;15597;50.914;6.638;2023-07-29T04:14:52;99941.50;;;25.02;52.36
28344;BME280;15597;50.914;6.638;2023-07-29T04:17:18;99936.16;;;25.02;51.29
28344;BME280;15597;50.914;6.638;2023-07-29T04:19:44;99948.25;;;25.06;51.95
28344;BME280;15597;50.914;6.638;2023-07-29T04:22:09;99946.56;;;25.05;52.80
28344;BME280;15597;50.914;6.638;2023-07-29T04:24:35;99952.63;;;25.07;52.75
28344;BME280;15597;50.914;6.638;2023-07-29T04:27:01;99951.50;;;25.09;52.68
28344;BME280;15597;50.914;6.638;2023-07-29T04:29:26;99954.59;;;25.05;52.86
28344;BME280;15597;50.914;6.638;2023-07-29T04:31:52;99959.25;;;25.03;52.63
28344;BME280;15597;50.914;6.638;2023-07-29T04:34:18;99977.00;;;25.04;52.24
28344;BME280;15597;50.914;6.638;2023-07-29T04:36:47;99971.22;;;24.99;52.44
28344;BME280;15597;50.914;6.638;2023-07-29T04:39:14;99963.34;;;24.97;52.60
28344;BME280;15597;50.914;6.638;2023-07-29T04:41:40;99964.34;;;24.96;52.46
28344;BME280;15597;50.914;6.638;2023-07-29T04:44:06;99962.50;;;24.97;53.21
28344;BME280;15597;50.914;6.638;2023-07-29T04:46:33;99955.75;;;25.02;53.06
28344;BME280;15597;50.914;6.638;2023-07-29T04:48:59;99947.56;;;25.04;52.63
28344;BME280;15597;50.914;6.638;2023-07-29T04:51:24;99948.41;;;25.04;52.39
28344;BME280;15597;50.914;6.638;2023-07-29T04:53:50;99951.91;;;25.05;52.41
28344;BME280;15597;50.914;6.638;2023-07-29T04:56:15;99955.59;;;25.04;51.85
28344;BME280;15597;50.914;6.638;2023-07-29T04:58:41;99954.19;;;25.00;51.52
28344;BME280;15597;50.914;6.638;2023-07-29T05:01:07;99961.50;;;24.98;51.37
28344;BME280;15597;50.914;6.638;2023-07-29T05:03:33;99963.91;;;24.91;51.27
28344;BME280;15597;50.914;6.638;2023-07-29T05:05:59;99966.03;;;24.87;51.50
28344;BME280;15597;50.914;6.638;2023-07-29T05:08:26;99961.94;;;24.83;52.49
28344;BME280;15597;50.914;6.638;2023-07-29T05:10:52;99949.13;;;24.77;51.51
28344;BME280;15597;50.914;6.638;2023-07-29T05:13:19;99965.31;;;24.75;51.79
28344;BME280;15597;50.914;6.638;2023-07-29T05:15:47;99977.00;;;24.74;51.99
28344;BME280;15597;50.914;6.638;2023-07-29T05:18:13;99962.06;;;24.72;52.63
28344;BME280;15597;50.914;6.638;2023-07-29T05:20:39;99971.06;;;24.71;53.05
28344;BME280;15597;50.914;6.638;2023-07-29T05:23:05;99961.63;;;24.67;52.59
28344;BME280;15597;50.914;6.638;2023-07-29T05:25:30;99958.09;;;24.66;52.34
28344;BME280;15597;50.914;6.638;2023-07-29T05:27:56;99966.56;;;24.61;51.71
28344;BME280;15597;50.914;6.638;2023-07-29T05:30:22;99967.25;;;24.63;52.07
28344;BME280;15597;50.914;6.638;2023-07-29T05:32:48;99978.94;;;24.62;53.13
28344;BME280;15597;50.914;6.638;2023-07-29T05:35:14;99986.69;;;24.65;52.70
28344;BME280;15597;50.914;6.638;2023-07-29T05:37:42;99989.66;;;24.62;51.93
28344;BME280;15597;50.914;6.638;2023-07-29T05:40:08;100000.06;;;24.65;52.22
28344;BME280;15597;50.914;6.638;2023-07-29T05:42:34;99996.69;;;24.63;51.97
28344;BME280;15597;50.914;6.638;2023-07-29T05:45:00;99989.66;;;24.62;52.26
28344;BME280;15597;50.914;6.638;2023-07-29T05:47:26;99997.50;;;24.64;52.12
28344;BME280;15597;50.914;6.638;2023-07-29T05:49:52;100000.06;;;24.65;52.21
28344;BME280;15597;50.914;6.638;2023-07-29T05:52:18;100006.41;;;24.64;52.54
28344;BME280;15597;50.914;6.638;2023-07-29T05:54:44;100005.00;;;24.60;52.00
28344;BME280;15597;50.914;6.638;2023-07-29T05:57:10;100009.47;;;24.60;51.90
28344;BME280;15597;50.914;6.638;2023-07-29T05:59:36;100014.97;;;24.58;53.07
28344;BME280;15597;50.914;6.638;2023-07-29T06:02:02;100009.91;;;24.55;53.52
28344;BME280;15597;50.914;6.638;2023-07-29T06:04:28;100010.19;;;24.52;52.93
28344;BME280;15597;50.914;6.638;2023-07-29T06:06:54;100020.88;;;24.52;53.52
28344;BME280;15597;50.914;6.638;2023-07-29T06:09:21;100032.41;;;24.53;53.51
28344;BME280;15597;50.914;6.638;2023-07-29T06:11:47;100031.84;;;24.49;52.78
28344;BME280;15597;50.914;6.638;2023-07-29T06:14:12;100044.50;;;24.47;52.82
28344;BME280;15597;50.914;6.638;2023-07-29T06:16:40;100041.13;;;24.45;52.61
28344;BME280;15597;50.914;6.638;2023-07-29T06:19:06;100046.75;;;24.42;53.43
28344;BME280;15597;50.914;6.638;2023-07-29T06:21:35;100046.47;;;24.45;53.04
28344;BME280;15597;50.914;6.638;2023-07-29T06:24:01;100046.22;;;24.48;53.66
28344;BME280;15597;50.914;6.638;2023-07-29T06:26:27;100045.06;;;24.50;52.61
28344;BME280;15597;50.914;6.638;2023-07-29T06:28:52;100045.22;;;24.49;53.03
28344;BME280;15597;50.914;6.638;2023-07-29T06:31:18;100042.41;;;24.50;52.89
28344;BME280;15597;50.914;6.638;2023-07-29T06:33:43;100038.63;;;24.53;52.95
28344;BME280;15597;50.914;6.638;2023-07-29T06:36:09;100043.69;;;24.56;52.58
28344;BME280;15597;50.914;6.638;2023-07-29T06:38:34;100047.34;;;24.55;53.86
28344;BME280;15597;50.914;6.638;2023-07-29T06:41:00;100036.50;;;24.57;52.60
28344;BME280;15597;50.914;6.638;2023-07-29T06:43:25;100033.28;;;24.53;53.30
28344;BME280;15597;50.914;6.638;2023-07-29T06:45:51;100031.31;;;24.55;52.89
28344;BME280;15597;50.914;6.638;2023-07-29T06:48:17;100038.34;;;24.56;53.02
28344;BME280;15597;50.914;6.638;2023-07-29T06:50:44;100037.47;;;24.56;53.30
28344;BME280;15597;50.914;6.638;2023-07-29T06:53:10;100033.28;;;24.53;52.96
28344;BME280;15597;50.914;6.638;2023-07-29T06:55:35;100046.50;;;24.55;53.75
28344;BME280;15597;50.914;6.638;2023-07-29T06:58:01;100035.78;;;24.55;53.93
28344;BME280;15597;50.914;6.638;2023-07-29T07:00:27;100024.09;;;24.56;54.08
28344;BME280;15597;50.914;6.638;2023-07-29T07:02:52;100035.38;;;24.59;53.69
28344;BME280;15597;50.914;6.638;2023-07-29T07:05:18;100022.28;;;24.56;53.13
28344;BME280;15597;50.914;6.638;2023-07-29T07:07:44;100031.84;;;24.59;53.49
28344;BME280;15597;50.914;6.638;2023-07-29T07:10:09;100030.75;;;24.61;53.11
28344;BME280;15597;50.914;6.638;2023-07-29T07:12:35;100030.03;;;24.59;52.91
28344;BME280;15597;50.914;6.638;2023-07-29T07:15:01;100043.13;;;24.62;52.94
28344;BME280;15597;50.914;6.638;2023-07-29T07:17:26;100045.94;;;24.61;53.20
28344;BME280;15597;50.914;6.638;2023-07-29T07:19:52;100046.09;;;24.59;52.95
28344;BME280;15597;50.914;6.638;2023-07-29T07:22:17;100042.81;;;24.56;53.12
28344;BME280;15597;50.914;6.638;2023-07-29T07:24:44;100044.53;;;24.57;53.17
28344;BME280;15597;50.914;6.638;2023-07-29T07:27:09;100059.72;;;24.56;52.94
28344;BME280;15597;50.914;6.638;2023-07-29T07:29:35;100064.94;;;24.58;53.16
28344;BME280;15597;50.914;6.638;2023-07-29T07:32:00;100065.09;;;24.56;53.23
28344;BME280;15597;50.914;6.638;2023-07-29T07:34:26;100067.06;;;24.54;53.30
28344;BME280;15597;50.914;6.638;2023-07-29T07:36:52;100066.19;;;24.54;53.74
28344;BME280;15597;50.914;6.638;2023-07-29T07:39:17;100059.16;;;24.53;53.08
28344;BME280;15597;50.914;6.638;2023-07-29T07:41:43;100062.81;;;24.51;53.04
28344;BME280;15597;50.914;6.638;2023-07-29T07:44:08;100062.69;;;24.53;53.12
28344;BME280;15597;50.914;6.638;2023-07-29T07:46:34;100054.94;;;24.50;53.14
28344;BME280;15597;50.914;6.638;2023-07-29T07:49:00;100058.00;;;24.45;52.50
28344;BME280;15597;50.914;6.638;2023-07-29T07:51:25;100059.97;;;24.43;52.85
28344;BME280;15597;50.914;6.638;2023-07-29T07:53:50;100068.16;;;24.42;52.93
28344;BME280;15597;50.914;6.638;2023-07-29T07:56:16;100053.19;;;24.39;52.76
28344;BME280;15597;50.914;6.638;2023-07-29T07:58:42;100066.19;;;24.44;52.74
28344;BME280;15597;50.914;6.638;2023-07-29T08:01:08;100063.34;;;24.45;52.68
28344;BME280;15597;50.914;6.638;2023-07-29T08:03:35;100072.25;;;24.46;52.87
28344;BME280;15597;50.914;6.638;2023-07-29T08:06:00;100066.88;;;24.46;53.10
28344;BME280;15597;50.914;6.638;2023-07-29T08:08:26;100076.59;;;24.47;53.27
28344;BME280;15597;50.914;6.638;2023-07-29T08:10:53;100077.31;;;24.49;52.62
28344;BME280;15597;50.914;6.638;2023-07-29T08:13:23;100064.91;;;24.48;52.26
28344;BME280;15597;50.914;6.638;2023-07-29T08:15:51;100062.25;;;24.48;52.29
28344;BME280;15597;50.914;6.638;2023-07-29T08:18:17;100059.47;;;24.28;52.39
28344;BME280;15597;50.914;6.638;2023-07-29T08:20:56;100064.72;;;24.30;53.12
28344;BME280;15597;50.914;6.638;2023-07-29T08:23:24;100064.75;;;24.40;52.74
28344;BME280;15597;50.914;6.638;2023-07-29T08:25:54;100065.59;;;24.40;52.17
28344;BME280;15597;50.914;6.638;2023-07-29T08:28:24;100062.25;;;24.48;52.81
28344;BME280;15597;50.914;6.638;2023-07-29T08:30:49;100073.22;;;24.55;52.65
28344;BME280;15597;50.914;6.638;2023-07-29T08:33:15;100085.78;;;24.64;52.79
28344;BME280;15597;50.914;6.638;2023-07-29T08:35:41;100080.03;;;24.69;52.31
28344;BME280;15597;50.914;6.638;2023-07-29T08:38:06;100078.91;;;24.71;52.32
28344;BME280;15597;50.914;6.638;2023-07-29T08:40:34;100070.50;;;24.76;51.85
28344;BME280;15597;50.914;6.638;2023-07-29T08:43:04;100072.31;;;24.75;51.92
28344;BME280;15597;50.914;6.638;2023-07-29T08:45:34;100075.56;;;24.79;51.53
28344;BME280;15597;50.914;6.638;2023-07-29T08:48:02;100082.34;;;24.83;52.04
28344;BME280;15597;50.914;6.638;2023-07-29T08:50:33;100076.00;;;24.84;51.67
28344;BME280;15597;50.914;6.638;2023-07-29T08:53:00;100075.31;;;24.82;51.33
28344;BME280;15597;50.914;6.638;2023-07-29T08:55:29;100075.84;;;24.86;51.44
28344;BME280;15597;50.914;6.638;2023-07-29T08:57:57;100071.38;;;24.86;51.87
28344;BME280;15597;50.914;6.638;2023-07-29T09:00:23;100074.75;;;24.88;51.23
28344;BME280;15597;50.914;6.638;2023-07-29T09:02:49;100083.75;;;24.87;51.41
28344;BME280;15597;50.914;6.638;2023-07-29T09:05:14;100087.13;;;24.89;51.32
28344;BME280;15597;50.914;6.638;2023-07-29T09:07:40;100079.69;;;24.93;51.06
28344;BME280;15597;50.914;6.638;2023-07-29T09:10:09;100089.25;;;24.96;51.31
28344;BME280;15597;50.914;6.638;2023-07-29T09:12:36;100088.00;;;25.00;51.03
28344;BME280;15597;50.914;6.638;2023-07-29T09:15:01;100086.03;;;25.02;51.40
28344;BME280;15597;50.914;6.638;2023-07-29T09:17:34;100084.75;;;25.06;51.42
28344;BME280;15597;50.914;6.638;2023-07-29T09:20:00;100081.81;;;25.09;50.32
28344;BME280;15597;50.914;6.638;2023-07-29T09:22:27;100091.53;;;25.10;50.61
28344;BME280;15597;50.914;6.638;2023-07-29T09:24:52;100089.84;;;25.09;50.74
28344;BME280;15597;50.914;6.638;2023-07-29T09:27:29;100088.28;;;25.06;51.09
28344;BME280;15597;50.914;6.638;2023-07-29T09:29:57;100080.69;;;25.12;50.63
28344;BME280;15597;50.914;6.638;2023-07-29T09:32:24;100081.25;;;25.15;50.38
28344;BME280;15597;50.914;6.638;2023-07-29T09:34:50;100085.59;;;25.16;50.38
28344;BME280;15597;50.914;6.638;2023-07-29T09:37:24;100080.97;;;25.08;50.34
28344;BME280;15597;50.914;6.638;2023-07-29T09:39:50;100083.78;;;24.97;50.66
28344;BME280;15597;50.914;6.638;2023-07-29T09:42:21;100080.97;;;25.08;50.59
28344;BME280;15597;50.914;6.638;2023-07-29T09:44:50;100085.75;;;25.15;50.94
28344;BME280;15597;50.914;6.638;2023-07-29T09:47:20;100083.50;;;25.20;50.71
28344;BME280;15597;50.914;6.638;2023-07-29T09:49:47;100099.56;;;25.30;50.58
28344;BME280;15597;50.914;6.638;2023-07-29T09:52:15;100088.28;;;25.36;50.58
28344;BME280;15597;50.914;6.638;2023-07-29T09:54:42;100097.72;;;25.40;50.22
28344;BME280;15597;50.914;6.638;2023-07-29T09:57:08;100091.38;;;25.41;50.30
28344;BME280;15597;50.914;6.638;2023-07-29T09:59:34;100091.38;;;25.41;50.50
28344;BME280;15597;50.914;6.638;2023-07-29T10:02:00;100104.97;;;25.49;50.54
28344;BME280;15597;50.914;6.638;2023-07-29T10:04:26;100101.84;;;25.54;50.33
28344;BME280;15597;50.914;6.638;2023-07-29T10:06:52;100099.31;;;25.52;50.34
28344;BME280;15597;50.914;6.638;2023-07-29T10:09:18;100110.44;;;25.58;49.97
28344;BME280;15597;50.914;6.638;2023-07-29T10:11:45;100106.09;;;25.57;50.46
28344;BME280;15597;50.914;6.638;2023-07-29T10:14:11;100099.31;;;25.52;50.90
28344;BME280;15597;50.914;6.638;2023-07-29T10:16:37;100099.59;;;25.49;50.70
28344;BME280;15597;50.914;6.638;2023-07-29T10:19:04;100110.59;;;25.46;50.69
28344;BME280;15597;50.914;6.638;2023-07-29T10:21:30;100114.28;;;25.45;51.25
28344;BME280;15597;50.914;6.638;2023-07-29T10:24:01;100122.69;;;25.41;51.06
28344;BME280;15597;50.914;6.638;2023-07-29T10:26:31;100120.13;;;25.39;51.36
28344;BME280;15597;50.914;6.638;2023-07-29T10:28:58;100115.75;;;25.18;51.72
28344;BME280;15597;50.914;6.638;2023-07-29T10:31:28;100111.97;;;25.21;51.68
28344;BME280;15597;50.914;6.638;2023-07-29T10:33:54;100110.53;;;25.27;51.86
28344;BME280;15597;50.914;6.638;2023-07-29T10:36:20;100116.75;;;25.27;51.76
28344;BME280;15597;50.914;6.638;2023-07-29T10:38:46;100115.91;;;25.27;51.81
28344;BME280;15597;50.914;6.638;2023-07-29T10:41:12;100112.25;;;25.28;51.85
28344;BME280;15597;50.914;6.638;2023-07-29T10:43:37;100116.19;;;25.33;51.80
28344;BME280;15597;50.914;6.638;2023-07-29T10:46:17;100111.41;;;25.27;51.98
28344;BME280;15597;50.914;6.638;2023-07-29T10:53:56;100100.69;;;25.37;51.63
28344;BME280;15597;50.914;6.638;2023-07-29T10:56:32;100104.06;;;25.39;52.00
28344;BME280;15597;50.914;6.638;2023-07-29T10:59:22;100109.13;;;25.42;51.37
28344;BME280;15597;50.914;6.638;2023-07-29T11:01:58;100098.28;;;25.44;51.38
28344;BME280;15597;50.914;6.638;2023-07-29T11:04:27;100102.00;;;25.52;51.86
28344;BME280;15597;50.914;6.638;2023-07-29T11:15:11;100088.03;;;25.59;51.17
28344;BME280;15597;50.914;6.638;2023-07-29T11:17:42;100088.88;;;25.69;50.84
28344;BME280;15597;50.914;6.638;2023-07-29T11:20:09;100082.63;;;25.78;50.35
28344;BME280;15597;50.914;6.638;2023-07-29T11:22:36;100088.94;;;25.87;50.54
28344;BME280;15597;50.914;6.638;2023-07-29T11:25:02;100082.00;;;25.94;50.29
28344;BME280;15597;50.914;6.638;2023-07-29T11:27:28;100087.94;;;25.98;50.11
28344;BME280;15597;50.914;6.638;2023-07-29T11:30:01;100077.50;;;25.95;50.06
28344;BME280;15597;50.914;6.638;2023-07-29T11:32:28;100067.88;;;26.02;50.11
28344;BME280;15597;50.914;6.638;2023-07-29T11:34:54;100086.94;;;26.09;49.53
28344;BME280;15597;50.914;6.638;2023-07-29T11:37:19;100086.47;;;26.14;49.64
28344;BME280;15597;50.914;6.638;2023-07-29T11:39:47;100077.72;;;26.11;49.74
28344;BME280;15597;50.914;6.638;2023-07-29T11:42:14;100077.19;;;26.18;49.55
28344;BME280;15597;50.914;6.638;2023-07-29T11:44:40;100082.63;;;26.26;49.34
28344;BME280;15597;50.914;6.638;2023-07-29T11:47:10;100076.44;;;26.25;49.21
28344;BME280;15597;50.914;6.638;2023-07-29T11:49:37;100077.38;;;26.34;48.96
28344;BME280;15597;50.914;6.638;2023-07-29T11:52:07;100073.72;;;26.35;48.88
28344;BME280;15597;50.914;6.638;2023-07-29T11:54:38;100072.41;;;26.39;49.26
28344;BME280;15597;50.914;6.638;2023-07-29T11:57:07;100066.63;;;26.44;48.52
28344;BME280;15597;50.914;6.638;2023-07-29T11:59:35;100071.25;;;26.52;48.73
28344;BME280;15597;50.914;6.638;2023-07-29T12:02:02;100059.22;;;26.56;48.80
28344;BME280;15597;50.914;6.638;2023-07-29T12:04:30;100058.63;;;26.62;48.73
28344;BME280;15597;50.914;6.638;2023-07-29T12:06:57;100060.00;;;26.66;48.82
28344;BME280;15597;50.914;6.638;2023-07-29T12:09:23;100057.84;;;26.70;48.58
28344;BME280;15597;50.914;6.638;2023-07-29T12:11:49;100061.03;;;26.83;48.38
28344;BME280;15597;50.914;6.638;2023-07-29T12:14:16;100052.69;;;26.87;48.25
28344;BME280;15597;50.914;6.638;2023-07-29T12:16:47;100045.47;;;26.87;48.01
28344;BME280;15597;50.914;6.638;2023-07-29T12:19:14;100048.75;;;26.99;48.10
28344;BME280;15597;50.914;6.638;2023-07-29T12:21:41;100048.88;;;27.07;47.38
28344;BME280;15597;50.914;6.638;2023-07-29T12:24:07;100045.19;;;27.08;47.91
28344;BME280;15597;50.914;6.638;2023-07-29T12:26:33;100036.50;;;27.15;47.85
28344;BME280;15597;50.914;6.638;2023-07-29T12:29:14;100039.72;;;27.18;47.69
28344;BME280;15597;50.914;6.638;2023-07-29T12:31:40;100032.66;;;27.35;47.96
28344;BME280;15597;50.914;6.638;2023-07-29T12:34:06;100044.69;;;27.49;47.65
28344;BME280;15597;50.914;6.638;2023-07-29T12:39:19;100043.44;;;27.62;47.06
28344;BME280;15597;50.914;6.638;2023-07-29T12:41:44;100036.25;;;27.70;46.58
28344;BME280;15597;50.914;6.638;2023-07-29T12:44:11;100019.00;;;27.73;46.82
28344;BME280;15597;50.914;6.638;2023-07-29T12:46:36;100017.34;;;27.80;46.58
28344;BME280;15597;50.914;6.638;2023-07-29T12:49:02;100009.28;;;27.80;46.27
28344;BME280;15597;50.914;6.638;2023-07-29T12:51:27;100030.66;;;27.90;46.27
28344;BME280;15597;50.914;6.638;2023-07-29T12:53:54;100025.13;;;27.92;45.81
28344;BME280;15597;50.914;6.638;2023-07-29T12:56:20;100037.25;;;27.96;45.82
28344;BME280;15597;50.914;6.638;2023-07-29T12:58:45;100038.25;;;27.95;45.42
28344;BME280;15597;50.914;6.638;2023-07-29T13:01:11;100040.78;;;27.96;45.42
28344;BME280;15597;50.914;6.638;2023-07-29T13:03:46;100034.88;;;27.93;45.34
28344;BME280;15597;50.914;6.638;2023-07-29T13:06:12;100033.03;;;27.93;45.50
28344;BME280;15597;50.914;6.638;2023-07-29T13:08:38;100033.88;;;27.94;45.13
28344;BME280;15597;50.914;6.638;2023-07-29T13:11:04;100035.22;;;27.90;45.29